Time;durP1;ratioP1;P1;durP2;ratioP2;P2;SDS_P1;SDS_P2;PMS_P1;PMS_P2;Temp;Humidity;BMP_temperature;BMP_pressure;BME280_temperature;BME280_humidity;BME280_pressure;Samples;Min_cycle;Max_cycle;Signal;HPM_P1;HPM_P2
2021/12/01 00:02:01;;;;;;;1.03;0.10;;;;;;;5.63;89.04;94909.81;4384636;32;20222;-59
2021/12/01 00:04:26;;;;;;;0.10;0.10;;;;;;;5.55;88.74;94918.28;4381993;32;20193;-59
2021/12/01 00:06:52;;;;;;;0.10;0.10;;;;;;;5.57;89.00;94905.66;4379434;32;20188;-59
2021/12/01 00:09:17;;;;;;;0.00;0.00;;;;;;;5.49;89.63;94899.88;4377007;32;20185;-60
2021/12/01 00:11:42;;;;;;;0.00;0.00;;;;;;;5.46;89.24;94894.37;4389406;32;20196;-60
2021/12/01 00:14:08;;;;;;;0.73;0.10;;;;;;;5.45;89.09;94887.53;4388638;32;20180;-60
2021/12/01 00:16:33;;;;;;;0.00;0.00;;;;;;;5.43;90.02;94895.69;4386524;32;20241;-60
2021/12/01 00:18:59;;;;;;;0.10;0.10;;;;;;;5.60;89.22;94884.84;4383025;32;20247;-60
2021/12/01 00:21:25;;;;;;;0.00;0.00;;;;;;;5.43;89.65;94885.19;4375849;32;20244;-59
2021/12/01 00:23:50;;;;;;;0.10;0.10;;;;;;;5.43;89.99;94890.44;4383132;32;20202;-60
2021/12/01 00:26:15;;;;;;;0.00;0.00;;;;;;;5.47;89.75;94875.69;4386601;32;20280;-60
2021/12/01 00:28:41;;;;;;;0.63;0.00;;;;;;;5.46;90.26;94883.84;4389661;32;20208;-60
2021/12/01 00:31:06;;;;;;;0.00;0.00;;;;;;;5.51;90.61;94878.56;4369819;32;20203;-59
2021/12/01 00:33:33;;;;;;;0.10;0.10;;;;;;;5.48;90.53;94872.00;4389969;32;20188;-59
2021/12/01 00:35:58;;;;;;;0.20;0.20;;;;;;;5.37;91.52;94875.75;4377677;32;20208;-60
2021/12/01 00:38:25;;;;;;;0.20;0.20;;;;;;;5.22;92.89;94878.44;4385896;32;20303;-59
2021/12/01 00:40:51;;;;;;;1.07;0.10;;;;;;;5.31;93.21;94870.78;4385073;32;20195;-60
2021/12/01 00:43:18;;;;;;;0.00;0.00;;;;;;;5.36;92.67;94863.69;4373349;32;20276;-60
2021/12/01 00:45:57;;;;;;;0.10;0.10;;;;;;;5.42;92.41;94867.81;4386597;32;20226;-60
2021/12/01 00:48:24;;;;;;;0.00;0.00;;;;;;;5.33;92.85;94873.94;4388977;32;20276;-60
2021/12/01 00:50:51;;;;;;;0.00;0.00;;;;;;;5.44;91.82;94865.72;4387659;32;20335;-59
2021/12/01 00:53:16;;;;;;;0.10;0.10;;;;;;;5.50;91.38;94863.84;4372431;32;20288;-59
2021/12/01 00:55:43;;;;;;;0.00;0.00;;;;;;;5.47;91.72;94874.91;4390407;32;20272;-60
2021/12/01 00:58:11;;;;;;;0.33;0.10;;;;;;;5.33;91.84;94856.31;4381884;32;20235;-60
2021/12/01 01:00:39;;;;;;;0.10;0.10;;;;;;;5.50;91.09;94850.69;4382749;32;20284;-60
2021/12/01 01:03:05;;;;;;;0.10;0.10;;;;;;;5.48;90.68;94850.19;4386933;32;20288;-59
2021/12/01 01:05:30;;;;;;;0.10;0.10;;;;;;;5.39;90.93;94857.88;4383286;32;20280;-59
2021/12/01 01:07:56;;;;;;;0.10;0.10;;;;;;;5.53;89.91;94853.56;4383394;32;20214;-60
2021/12/01 01:18:20;;;;;;;0.20;0.20;;;;;;;5.58;88.87;94844.09;4376110;32;20295;-60
2021/12/01 01:20:46;;;;;;;0.00;0.00;;;;;;;5.60;89.14;94847.22;4378086;32;20269;-60
2021/12/01 01:23:11;;;;;;;0.10;0.10;;;;;;;5.62;88.90;94840.59;4386230;32;20216;-60
2021/12/01 01:25:37;;;;;;;0.17;0.00;;;;;;;5.70;88.39;94842.66;4379948;32;20224;-60
2021/12/01 01:28:03;;;;;;;0.10;0.10;;;;;;;5.80;88.38;94841.81;4384250;32;20192;-60
2021/12/01 01:30:28;;;;;;;0.00;0.00;;;;;;;5.62;88.17;94829.28;4373313;32;20231;-60
2021/12/01 01:32:54;;;;;;;0.10;0.10;;;;;;;5.67;88.05;94824.78;4388063;32;20277;-60
2021/12/01 01:35:19;;;;;;;0.03;0.03;;;;;;;5.71;87.83;94822.41;4371006;32;20189;-59
2021/12/01 01:37:45;;;;;;;0.00;0.00;;;;;;;5.75;87.54;94823.44;4387622;32;20263;-60
2021/12/01 01:40:11;;;;;;;0.00;0.00;;;;;;;5.63;87.95;94821.13;4381082;32;20184;-60
2021/12/01 01:42:36;;;;;;;0.10;0.10;;;;;;;5.60;88.13;94813.03;4371767;32;20195;-60
2021/12/01 01:45:04;;;;;;;0.00;0.00;;;;;;;5.63;87.64;94809.81;4385206;32;20204;-60
2021/12/01 01:47:29;;;;;;;0.13;0.13;;;;;;;5.86;86.72;94796.75;4377010;32;20386;-60
2021/12/01 01:49:59;;;;;;;0.03;0.03;;;;;;;5.88;86.45;94796.47;4381723;32;20276;-60
2021/12/01 01:52:29;;;;;;;0.00;0.00;;;;;;;5.91;86.55;94795.16;4381089;32;20199;-66
2021/12/01 01:54:55;;;;;;;0.30;0.10;;;;;;;5.89;86.30;94794.66;4382011;32;20320;-60
2021/12/01 01:57:20;;;;;;;0.10;0.10;;;;;;;5.84;86.61;94798.88;4377449;32;20300;-60
2021/12/01 01:59:46;;;;;;;0.77;0.00;;;;;;;5.89;86.08;94803.34;4381300;32;20280;-60
2021/12/01 02:02:12;;;;;;;0.10;0.10;;;;;;;5.88;86.19;94791.22;4381659;32;20193;-60
2021/12/01 02:04:38;;;;;;;0.00;0.00;;;;;;;5.92;86.14;94781.72;4380335;32;20347;-60
2021/12/01 02:07:04;;;;;;;0.10;0.10;;;;;;;5.88;86.14;94791.22;4381308;32;20199;-60
2021/12/01 02:09:29;;;;;;;0.03;0.00;;;;;;;5.83;86.68;94788.63;4387054;32;20236;-60
2021/12/01 02:11:58;;;;;;;0.03;0.03;;;;;;;5.95;86.27;94788.28;4386844;32;20284;-60
2021/12/01 02:14:24;;;;;;;0.10;0.10;;;;;;;5.97;85.43;94794.84;4387240;32;20245;-60
2021/12/01 02:16:50;;;;;;;0.00;0.00;;;;;;;5.96;85.66;94782.75;4386645;32;20383;-60
2021/12/01 02:19:16;;;;;;;0.10;0.10;;;;;;;5.89;85.11;94779.66;4390414;32;20264;-59
2021/12/01 02:21:42;;;;;;;0.10;0.10;;;;;;;6.03;85.16;94787.69;4383161;32;20223;-60
2021/12/01 02:24:11;;;;;;;0.00;0.00;;;;;;;5.96;85.83;94781.97;4388453;32;20288;-60
2021/12/01 02:26:44;;;;;;;0.00;0.00;;;;;;;5.97;85.52;94763.28;4380653;32;20339;-60
2021/12/01 02:29:12;;;;;;;0.00;0.00;;;;;;;5.91;85.40;94767.00;4383161;32;20280;-60
2021/12/01 02:31:38;;;;;;;0.10;0.10;;;;;;;5.98;85.37;94756.94;4388707;32;20292;-60
2021/12/01 02:34:24;;;;;;;0.00;0.00;;;;;;;6.08;84.99;94753.41;4386054;32;20275;-60
2021/12/01 02:36:53;;;;;;;0.10;0.10;;;;;;;6.12;84.50;94755.22;4387203;32;20300;-60
2021/12/01 02:39:19;;;;;;;0.00;0.00;;;;;;;6.15;84.49;94746.75;4380666;32;20287;-60
2021/12/01 02:41:49;;;;;;;0.10;0.00;;;;;;;6.17;84.47;94747.28;4377903;32;20297;-60
2021/12/01 02:44:17;;;;;;;0.10;0.10;;;;;;;6.23;84.55;94747.22;4380488;32;20276;-60
2021/12/01 02:46:43;;;;;;;0.00;0.00;;;;;;;6.10;84.26;94719.69;4382775;32;20306;-60
2021/12/01 02:49:09;;;;;;;0.00;0.00;;;;;;;6.03;84.69;94720.00;4380560;32;20298;-60
2021/12/01 02:51:37;;;;;;;0.00;0.00;;;;;;;6.18;84.01;94713.81;4381347;32;20292;-60
2021/12/01 02:54:03;;;;;;;0.00;0.00;;;;;;;6.23;84.08;94715.62;4372607;32;20177;-60
2021/12/01 02:56:30;;;;;;;0.00;0.00;;;;;;;6.06;84.12;94714.19;4373132;32;20280;-60
2021/12/01 02:58:58;;;;;;;1.03;0.10;;;;;;;6.20;84.04;94711.69;4387677;32;20288;-62
2021/12/01 03:01:24;;;;;;;0.00;0.00;;;;;;;6.05;83.92;94707.34;4381880;32;20289;-60
2021/12/01 03:03:50;;;;;;;0.00;0.00;;;;;;;6.15;83.79;94693.31;4381022;32;20296;-60
2021/12/01 03:06:18;;;;;;;0.00;0.00;;;;;;;6.08;83.92;94691.00;4372431;32;20371;-60
2021/12/01 03:08:45;;;;;;;0.00;0.00;;;;;;;6.13;84.04;94692.81;4388618;32;20311;-59
2021/12/01 03:11:12;;;;;;;0.00;0.00;;;;;;;6.07;84.10;94684.16;4379998;32;20335;-60
2021/12/01 03:13:38;;;;;;;0.00;0.00;;;;;;;6.12;83.85;94683.34;4377949;32;20292;-60
2021/12/01 03:16:03;;;;;;;0.00;0.00;;;;;;;6.15;84.12;94691.47;4375403;32;20295;-60
2021/12/01 03:18:29;;;;;;;0.00;0.00;;;;;;;6.23;83.62;94687.44;4387630;32;20188;-60
2021/12/01 03:20:55;;;;;;;0.10;0.07;;;;;;;6.10;84.08;94678.34;4384197;32;20229;-59
2021/12/01 03:23:22;;;;;;;0.10;0.10;;;;;;;6.16;84.05;94677.25;4379331;32;20185;-59
2021/12/01 03:25:47;;;;;;;0.00;0.00;;;;;;;6.19;84.13;94681.16;4382142;32;20284;-59
2021/12/01 03:28:13;;;;;;;0.00;0.00;;;;;;;6.24;84.12;94685.56;4382104;32;20288;-60
2021/12/01 03:30:39;;;;;;;0.00;0.00;;;;;;;6.28;83.72;94683.94;4378991;32;20206;-60
2021/12/01 03:33:07;;;;;;;0.07;0.07;;;;;;;6.20;83.88;94688.00;4370575;32;20233;-60
2021/12/01 03:35:34;;;;;;;0.07;0.07;;;;;;;6.15;83.83;94673.03;4378544;32;20224;-60
2021/12/01 03:37:59;;;;;;;0.00;0.00;;;;;;;6.23;84.14;94676.13;4373496;32;20277;-60
2021/12/01 03:40:24;;;;;;;0.07;0.07;;;;;;;6.26;83.90;94678.16;4377613;32;20272;-59
2021/12/01 03:42:50;;;;;;;0.07;0.07;;;;;;;6.27;83.94;94674.47;4387992;32;20224;-59
2021/12/01 03:45:16;;;;;;;0.07;0.07;;;;;;;6.28;83.78;94674.19;4383783;32;21962;-60
2021/12/01 03:47:42;;;;;;;0.00;0.00;;;;;;;6.27;84.22;94666.56;4378902;32;20291;-60
2021/12/01 03:50:09;;;;;;;0.10;0.10;;;;;;;6.15;84.76;94665.13;4379456;32;20199;-60
2021/12/01 03:52:35;;;;;;;0.00;0.00;;;;;;;6.14;84.56;94657.50;4373535;32;20189;-60
2021/12/01 03:55:01;;;;;;;0.10;0.10;;;;;;;6.33;84.19;94658.34;4380436;32;20315;-60
2021/12/01 03:57:27;;;;;;;0.10;0.10;;;;;;;6.30;84.53;94660.75;4375789;32;20226;-64
2021/12/01 03:59:52;;;;;;;0.00;0.00;;;;;;;6.35;83.67;94658.06;4379657;32;20193;-60
2021/12/01 04:02:18;;;;;;;0.10;0.10;;;;;;;6.29;84.30;94648.63;4377715;32;20201;-60
2021/12/01 04:04:44;;;;;;;0.10;0.10;;;;;;;6.47;83.60;94642.59;4385350;32;20264;-60
2021/12/01 04:07:09;;;;;;;0.03;0.03;;;;;;;6.38;83.47;94639.06;4384465;32;20180;-60
2021/12/01 04:09:36;;;;;;;0.10;0.10;;;;;;;6.25;84.49;94632.59;4385752;32;20279;-60
2021/12/01 04:12:02;;;;;;;0.10;0.10;;;;;;;6.35;83.83;94632.50;4382244;32;20246;-60
2021/12/01 04:14:28;;;;;;;0.03;0.03;;;;;;;6.30;84.29;94626.50;4383447;32;20342;-60
2021/12/01 04:16:53;;;;;;;0.10;0.10;;;;;;;6.32;84.89;94627.00;4385744;32;20280;-60
2021/12/01 04:19:19;;;;;;;0.20;0.20;;;;;;;6.31;85.19;94630.72;4372769;32;20242;-60
2021/12/01 04:21:44;;;;;;;0.00;0.00;;;;;;;6.31;85.49;94620.94;4378246;32;20276;-60
2021/12/01 04:24:10;;;;;;;0.10;0.10;;;;;;;6.30;85.20;94615.97;4385641;32;20242;-60
2021/12/01 04:26:36;;;;;;;0.00;0.00;;;;;;;6.34;85.33;94609.06;4381350;32;20287;-60
2021/12/01 04:29:04;;;;;;;0.10;0.10;;;;;;;6.35;85.12;94608.00;4385077;32;20191;-60
2021/12/01 04:31:33;;;;;;;0.10;0.10;;;;;;;6.47;84.09;94603.09;4388573;32;20325;-60
2021/12/01 04:34:00;;;;;;;0.10;0.10;;;;;;;6.37;84.53;94603.25;4388930;32;20285;-60
2021/12/01 04:36:33;;;;;;;0.10;0.10;;;;;;;6.46;84.20;94601.53;4385097;32;20292;-60
2021/12/01 04:39:01;;;;;;;0.20;0.20;;;;;;;6.44;84.04;94593.91;4386490;32;20368;-60
2021/12/01 04:41:29;;;;;;;0.10;0.10;;;;;;;6.47;84.07;94592.56;4380358;32;20276;-65
2021/12/01 04:43:55;;;;;;;0.10;0.10;;;;;;;6.43;84.16;94579.19;4382264;32;20273;-60
2021/12/01 04:46:20;;;;;;;0.10;0.10;;;;;;;6.47;84.02;94588.06;4384919;32;20312;-60
2021/12/01 04:48:49;;;;;;;0.00;0.00;;;;;;;6.44;84.16;94587.88;4381602;32;20304;-60
2021/12/01 04:51:17;;;;;;;0.20;0.20;;;;;;;6.41;83.71;94583.97;4385005;32;20197;-60
2021/12/01 04:53:43;;;;;;;0.20;0.20;;;;;;;6.54;83.59;94583.22;4389865;32;20276;-60
2021/12/01 04:56:09;;;;;;;0.10;0.10;;;;;;;6.54;83.44;94577.19;4385044;32;20296;-60
2021/12/01 04:58:35;;;;;;;0.07;0.07;;;;;;;6.48;83.71;94567.78;4388974;32;20292;-60
2021/12/01 05:01:01;;;;;;;0.00;0.00;;;;;;;6.62;83.23;94567.84;4381415;32;20357;-60
2021/12/01 05:03:27;;;;;;;0.20;0.20;;;;;;;6.62;83.14;94557.31;4379283;32;20259;-60
2021/12/01 05:05:52;;;;;;;0.20;0.20;;;;;;;6.48;83.82;94558.03;4378086;32;20191;-60
2021/12/01 05:08:20;;;;;;;0.57;0.20;;;;;;;6.53;83.35;94544.00;4386057;32;20314;-60
2021/12/01 05:10:46;;;;;;;0.20;0.20;;;;;;;6.61;83.59;94550.47;4385879;32;20185;-60
2021/12/01 05:13:11;;;;;;;0.07;0.07;;;;;;;6.57;83.63;94552.13;4375526;32;20298;-60
2021/12/01 05:15:37;;;;;;;0.10;0.10;;;;;;;6.61;83.07;94548.63;4388367;32;20211;-60
2021/12/01 05:18:02;;;;;;;0.10;0.10;;;;;;;6.53;83.62;94544.78;4390906;32;20207;-59
2021/12/01 05:20:28;;;;;;;0.10;0.10;;;;;;;6.43;84.20;94557.34;4390044;32;20184;-60
2021/12/01 05:22:53;;;;;;;0.10;0.10;;;;;;;6.45;84.37;94547.25;4387340;32;20185;-61
2021/12/01 05:25:18;;;;;;;0.10;0.10;;;;;;;6.38;85.00;94534.47;4377875;32;20184;-60
2021/12/01 05:27:44;;;;;;;0.20;0.20;;;;;;;6.41;85.34;94530.50;4386808;32;20203;-60
2021/12/01 05:30:10;;;;;;;0.17;0.17;;;;;;;6.45;84.75;94531.47;4387906;32;20203;-60
2021/12/01 05:32:36;;;;;;;0.30;0.30;;;;;;;6.44;84.76;94524.66;4383700;32;20211;-60
2021/12/01 05:35:01;;;;;;;0.20;0.20;;;;;;;6.37;85.09;94522.38;4387833;32;20232;-60
2021/12/01 05:37:26;;;;;;;0.10;0.10;;;;;;;6.52;84.92;94532.66;4384136;32;20199;-60
2021/12/01 05:39:52;;;;;;;0.10;0.10;;;;;;;6.44;85.06;94524.66;4379706;32;20238;-60
2021/12/01 05:42:18;;;;;;;0.93;0.20;;;;;;;6.47;85.41;94521.41;4386906;32;20180;-60
2021/12/01 05:44:44;;;;;;;0.20;0.20;;;;;;;6.53;85.16;94533.47;4385286;32;20184;-60
2021/12/01 05:47:10;;;;;;;0.40;0.30;;;;;;;6.36;85.80;94530.56;4386593;32;20189;-60
2021/12/01 05:49:41;;;;;;;0.20;0.20;;;;;;;6.24;86.64;94522.28;4382558;32;20276;-59
2021/12/01 05:52:08;;;;;;;0.30;0.30;;;;;;;6.41;86.14;94520.75;4384172;32;20215;-59
2021/12/01 05:54:34;;;;;;;0.33;0.33;;;;;;;6.48;86.73;94515.09;4383411;32;20303;-60
2021/12/01 05:56:59;;;;;;;0.20;0.20;;;;;;;6.37;88.31;94503.94;4382559;32;20276;-60
2021/12/01 05:59:24;;;;;;;0.10;0.10;;;;;;;6.42;88.75;94513.63;4386531;32;20235;-60
2021/12/01 06:01:50;;;;;;;0.30;0.30;;;;;;;6.31;89.04;94517.47;4384006;32;20188;-61
2021/12/01 06:04:15;;;;;;;0.40;0.40;;;;;;;6.36;90.14;94512.13;4386277;32;20195;-61
2021/12/01 06:06:40;;;;;;;0.47;0.47;;;;;;;6.33;90.92;94517.97;4385179;32;20242;-61
2021/12/01 06:09:06;;;;;;;0.57;0.20;;;;;;;6.25;92.11;94511.47;4374109;32;20185;-61
2021/12/01 06:11:31;;;;;;;0.30;0.30;;;;;;;6.26;92.20;94501.72;4379385;32;20240;-60
2021/12/01 06:13:57;;;;;;;0.30;0.30;;;;;;;6.31;91.34;94491.13;4385099;32;20181;-60
2021/12/01 06:16:23;;;;;;;1.17;0.40;;;;;;;6.28;91.21;94479.31;4388306;32;20184;-60
2021/12/01 06:18:49;;;;;;;0.30;0.30;;;;;;;6.20;92.09;94482.59;4385473;32;20200;-60
2021/12/01 06:21:15;;;;;;;3.70;0.50;;;;;;;6.19;92.43;94487.09;4390943;32;20318;-60
2021/12/01 06:23:40;;;;;;;0.30;0.30;;;;;;;6.31;92.26;94478.72;4384198;32;20316;-60
2021/12/01 06:26:06;;;;;;;2.83;0.60;;;;;;;6.29;92.12;94480.88;4379013;32;20247;-59
2021/12/01 06:28:31;;;;;;;0.77;0.47;;;;;;;6.14;92.55;94474.00;4377491;32;20226;-60
2021/12/01 06:30:57;;;;;;;0.20;0.20;;;;;;;6.19;92.94;94471.28;4385689;32;20212;-60
2021/12/01 06:33:23;;;;;;;1.03;0.40;;;;;;;6.12;93.34;94475.34;4373151;32;20193;-60
2021/12/01 06:35:49;;;;;;;0.30;0.30;;;;;;;6.18;92.69;94474.97;4383052;32;20256;-60
2021/12/01 06:38:16;;;;;;;0.30;0.30;;;;;;;6.10;92.86;94467.72;4383208;32;20216;-60
2021/12/01 06:40:41;;;;;;;1.30;0.30;;;;;;;6.24;92.94;94459.09;4378830;32;20376;-60
2021/12/01 06:43:07;;;;;;;0.73;0.33;;;;;;;6.34;92.29;94446.56;4386003;32;20296;-60
2021/12/01 06:45:32;;;;;;;1.20;0.50;;;;;;;6.36;92.81;94448.91;4380099;32;20211;-60
2021/12/01 06:47:57;;;;;;;0.50;0.40;;;;;;;6.31;92.54;94451.63;4381453;32;20189;-66
2021/12/01 06:50:23;;;;;;;0.60;0.60;;;;;;;6.34;92.86;94445.78;4388762;32;20184;-60
2021/12/01 06:52:48;;;;;;;0.30;0.30;;;;;;;6.26;93.12;94436.66;4383288;32;20202;-60
2021/12/01 06:55:14;;;;;;;0.50;0.50;;;;;;;6.32;92.80;94430.25;4389712;32;20261;-60
2021/12/01 06:57:39;;;;;;;0.40;0.40;;;;;;;6.37;92.96;94434.66;4367856;32;20192;-60
2021/12/01 07:00:08;;;;;;;0.57;0.43;;;;;;;6.38;92.57;94431.75;4382295;32;20189;-60
2021/12/01 07:02:34;;;;;;;0.77;0.40;;;;;;;6.43;92.31;94423.78;4378140;32;20185;-60
2021/12/01 07:04:59;;;;;;;0.40;0.40;;;;;;;6.47;91.70;94413.41;4382832;32;20291;-60
2021/12/01 07:07:25;;;;;;;6.90;0.70;;;;;;;6.53;91.25;94407.78;4385198;32;20175;-60
2021/12/01 07:09:51;;;;;;;0.90;0.40;;;;;;;6.46;91.31;94417.13;4386107;32;20227;-60
2021/12/01 07:12:17;;;;;;;1.00;0.50;;;;;;;6.43;91.74;94412.44;4380735;32;20215;-60
2021/12/01 07:14:42;;;;;;;2.70;0.40;;;;;;;6.32;91.87;94414.47;4377247;32;20284;-60
2021/12/01 07:17:08;;;;;;;0.87;0.60;;;;;;;6.40;91.61;94413.03;4382179;32;20303;-60
2021/12/01 07:19:34;;;;;;;0.40;0.40;;;;;;;6.25;91.63;94406.13;4387365;32;20185;-59
2021/12/01 07:21:59;;;;;;;1.57;0.90;;;;;;;6.36;91.42;94401.50;4387333;32;20195;-60
2021/12/01 07:24:25;;;;;;;1.57;0.50;;;;;;;6.32;91.09;94400.50;4383637;32;20199;-60
2021/12/01 07:26:51;;;;;;;0.57;0.50;;;;;;;6.35;91.48;94398.09;4383314;32;20207;-60
2021/12/01 07:29:17;;;;;;;1.80;0.40;;;;;;;6.35;91.03;94397.28;4375991;32;20207;-60
2021/12/01 07:31:43;;;;;;;0.97;0.40;;;;;;;6.44;90.20;94403.47;4378755;32;20303;-60
2021/12/01 07:34:09;;;;;;;67.43;5.20;;;;;;;6.34;90.42;94403.62;4380171;32;20272;-53
2021/12/01 07:36:35;;;;;;;28.27;2.40;;;;;;;6.83;95.19;94405.69;4382208;32;20223;-48
2021/12/01 07:39:01;;;;;;;4.10;0.70;;;;;;;8.88;97.21;94396.34;4375143;32;20196;-52
2021/12/01 07:41:27;;;;;;;5.53;0.67;;;;;;;10.04;85.47;94386.91;4383294;32;20365;-51
2021/12/01 07:43:52;;;;;;;3.13;0.60;;;;;;;10.61;77.31;94378.75;4385895;32;20285;-52
2021/12/01 07:46:17;;;;;;;0.97;0.60;;;;;;;10.98;72.97;94375.37;4383050;32;20251;-53
2021/12/01 07:48:43;;;;;;;3.63;0.50;;;;;;;11.40;70.63;94372.81;4378214;32;20189;-56
2021/12/01 07:51:08;;;;;;;0.80;0.33;;;;;;;11.93;69.12;94356.22;4383871;32;20206;-52
2021/12/01 07:53:34;;;;;;;0.20;0.20;;;;;;;12.04;67.48;94354.72;4383174;32;20208;-54
2021/12/01 07:56:02;;;;;;;1.17;0.30;;;;;;;11.74;67.19;94345.25;4385359;32;20192;-61
2021/12/01 07:58:27;;;;;;;0.23;0.23;;;;;;;9.94;69.90;94350.16;4389157;32;20211;-59
2021/12/01 08:00:53;;;;;;;0.23;0.23;;;;;;;8.45;74.88;94338.00;4382228;32;20192;-61
2021/12/01 08:03:18;;;;;;;0.30;0.30;;;;;;;8.00;77.42;94342.50;4384655;32;20311;-62
2021/12/01 08:05:43;;;;;;;0.73;0.60;;;;;;;7.77;78.69;94344.38;4375709;32;20188;-60
2021/12/01 08:08:10;;;;;;;0.60;0.40;;;;;;;7.29;80.04;94344.87;4385015;32;20188;-61
2021/12/01 08:10:36;;;;;;;0.23;0.23;;;;;;;6.90;82.42;94348.84;4382429;32;20202;-62
2021/12/01 08:13:02;;;;;;;1.03;0.50;;;;;;;6.88;82.61;94337.81;4385051;32;20316;-61
2021/12/01 08:15:27;;;;;;;0.60;0.60;;;;;;;6.88;82.93;94340.44;4387650;32;20204;-62
2021/12/01 08:17:54;;;;;;;0.83;0.50;;;;;;;6.92;82.93;94339.88;4386786;32;20226;-60
2021/12/01 08:20:20;;;;;;;0.50;0.50;;;;;;;6.89;83.42;94336.75;4380649;32;20386;-62
2021/12/01 08:22:46;;;;;;;0.20;0.20;;;;;;;6.80;83.67;94327.97;4381197;32;20281;-63
2021/12/01 08:25:12;;;;;;;0.23;0.20;;;;;;;7.04;82.56;94327.75;4378493;32;20387;-60
2021/12/01 08:27:38;;;;;;;0.83;0.50;;;;;;;6.88;83.23;94332.53;4379946;32;20185;-62
2021/12/01 08:30:05;;;;;;;0.47;0.30;;;;;;;6.78;83.71;94322.22;4384579;32;20344;-60
2021/12/01 08:32:30;;;;;;;0.33;0.33;;;;;;;6.82;84.00;94320.56;4377339;32;20364;-62
2021/12/01 08:34:56;;;;;;;0.50;0.50;;;;;;;6.84;83.28;94322.91;4381362;32;20280;-62
2021/12/01 08:37:21;;;;;;;0.40;0.40;;;;;;;6.82;82.89;94320.56;4386333;32;20215;-61
2021/12/01 08:39:50;;;;;;;0.20;0.20;;;;;;;6.88;82.50;94314.09;4387297;32;20180;-61
2021/12/01 08:42:17;;;;;;;0.43;0.43;;;;;;;7.06;81.80;94315.06;4387655;32;20199;-61
2021/12/01 08:44:46;;;;;;;0.40;0.40;;;;;;;7.03;81.76;94310.38;4371288;32;20280;-62
2021/12/01 08:47:14;;;;;;;0.57;0.47;;;;;;;7.20;81.05;94309.75;4385233;32;20326;-61
2021/12/01 08:49:39;;;;;;;0.60;0.50;;;;;;;6.97;82.21;94303.62;4379183;32;20395;-61
2021/12/01 08:52:06;;;;;;;1.37;0.47;;;;;;;7.08;81.17;94309.47;4388249;32;20292;-60
2021/12/01 08:54:31;;;;;;;4.43;3.20;;;;;;;7.20;80.01;94305.25;4376226;32;20235;-61
2021/12/01 08:56:57;;;;;;;3.63;3.00;;;;;;;7.08;80.69;94302.34;4376556;32;20332;-59
2021/12/01 08:59:23;;;;;;;2.10;1.70;;;;;;;7.11;80.08;94312.28;4384650;32;20207;-63
2021/12/01 09:01:49;;;;;;;3.10;2.83;;;;;;;7.17;79.88;94305.84;4380711;32;20185;-60
2021/12/01 09:04:14;;;;;;;1.47;1.27;;;;;;;7.27;79.38;94296.94;4386580;32;20189;-64
2021/12/01 09:06:40;;;;;;;4.67;3.87;;;;;;;7.27;79.55;94299.59;4384054;32;20332;-60
2021/12/01 09:09:05;;;;;;;13.50;8.10;;;;;;;7.31;79.60;94287.34;4386791;32;20219;-62
2021/12/01 09:11:31;;;;;;;8.60;2.30;;;;;;;7.38;81.39;94281.66;4386723;32;20232;-54
2021/12/01 09:13:56;;;;;;;11.53;2.53;;;;;;;11.46;81.66;94273.25;4384810;32;20203;-52
2021/12/01 09:16:22;;;;;;;3.87;1.53;;;;;;;14.00;65.14;94272.97;4376206;32;20189;-55
2021/12/01 09:18:48;;;;;;;7.37;2.63;;;;;;;14.67;58.18;94282.75;4378805;32;20180;-55
2021/12/01 09:21:13;;;;;;;25.67;13.00;;;;;;;15.85;54.55;94285.37;4373668;32;20221;-54
2021/12/01 09:23:38;;;;;;;13.97;7.43;;;;;;;15.17;51.06;94283.16;4386684;32;20188;-55
2021/12/01 09:26:04;;;;;;;8.83;4.70;;;;;;;15.57;51.37;94291.72;4381034;32;20214;-54
2021/12/01 09:28:30;;;;;;;7.43;4.83;;;;;;;15.52;50.82;94289.28;4384214;32;20211;-57
2021/12/01 09:30:57;;;;;;;5.07;2.97;;;;;;;16.02;51.45;94292.97;4382994;32;20236;-56
2021/12/01 09:33:23;;;;;;;3.97;2.50;;;;;;;15.61;51.48;94284.53;4388526;32;20185;-56
2021/12/01 09:35:51;;;;;;;3.03;2.20;;;;;;;15.40;51.32;94284.81;4383919;32;20202;-56
2021/12/01 09:38:18;;;;;;;2.63;0.90;;;;;;;15.45;51.27;94279.19;4380110;32;20180;-57
2021/12/01 09:40:47;;;;;;;2.13;0.97;;;;;;;15.46;50.20;94285.31;4379886;32;20185;-57
2021/12/01 09:43:14;;;;;;;0.50;0.50;;;;;;;14.56;49.88;94302.28;4384037;32;20241;-62
2021/12/01 09:45:40;;;;;;;1.00;0.90;;;;;;;13.73;51.97;94291.28;4379763;32;20188;-61
2021/12/01 09:48:06;;;;;;;0.60;0.60;;;;;;;12.29;56.37;94275.03;4384675;32;20213;-62
2021/12/01 09:50:31;;;;;;;1.13;1.03;;;;;;;11.22;59.79;94289.06;4378948;32;20228;-62
2021/12/01 09:52:57;;;;;;;1.57;0.70;;;;;;;10.38;62.91;94274.03;4381992;32;20246;-61
2021/12/01 09:55:22;;;;;;;0.60;0.50;;;;;;;10.11;64.61;94264.56;4382983;32;20184;-64
2021/12/01 09:57:57;;;;;;;0.30;0.30;;;;;;;9.69;66.39;94258.25;4377931;32;20211;-62
2021/12/01 10:00:23;;;;;;;0.40;0.40;;;;;;;9.43;68.18;94255.59;4383801;32;20184;-62
2021/12/01 10:02:48;;;;;;;0.30;0.30;;;;;;;9.47;68.31;94253.91;4384487;32;20215;-64
2021/12/01 10:05:46;;;;;;;0.87;0.40;;;;;;;9.27;68.95;94242.84;4367024;32;20207;-62
2021/12/01 10:08:24;;;;;;;0.20;0.20;;;;;;;9.22;69.73;94228.97;4374747;32;20255;-62
2021/12/01 10:10:51;;;;;;;2.70;0.40;;;;;;;9.31;69.83;94232.41;4376990;32;20255;-59
2021/12/01 10:13:26;;;;;;;0.73;0.30;;;;;;;9.52;68.97;94221.97;4380382;32;20184;-64
2021/12/01 10:15:53;;;;;;;0.43;0.37;;;;;;;9.48;68.64;94215.75;4380503;32;20229;-63
2021/12/01 10:18:19;;;;;;;0.30;0.30;;;;;;;9.39;68.69;94207.81;4379757;32;20246;-63
2021/12/01 10:20:57;;;;;;;0.27;0.27;;;;;;;9.46;68.67;94202.81;4374669;32;20185;-63
2021/12/01 10:23:24;;;;;;;0.40;0.30;;;;;;;9.59;67.55;94185.97;4374885;32;20199;-61
2021/12/01 10:25:50;;;;;;;0.30;0.27;;;;;;;9.60;68.56;94184.09;4368222;32;20259;-61
2021/12/01 10:28:43;;;;;;;0.90;0.43;;;;;;;9.82;66.60;94183.91;4383453;32;20241;-62
2021/12/01 10:31:09;;;;;;;0.30;0.30;;;;;;;9.78;66.10;94169.72;4382228;32;20215;-60
2021/12/01 10:33:34;;;;;;;0.20;0.20;;;;;;;9.57;66.91;94166.97;4386747;32;20196;-62
2021/12/01 10:36:02;;;;;;;0.30;0.30;;;;;;;9.85;65.38;94150.72;4383577;32;20193;-66
2021/12/01 10:38:32;;;;;;;1.60;0.40;;;;;;;9.75;65.84;94143.91;4377088;32;20194;-61
2021/12/01 10:41:07;;;;;;;0.37;0.33;;;;;;;9.62;65.74;94137.69;4377723;32;20181;-60
2021/12/01 10:43:48;;;;;;;0.87;0.20;;;;;;;9.54;66.25;94119.97;4379739;32;20201;-60
2021/12/01 10:46:16;;;;;;;1.20;0.30;;;;;;;9.62;66.90;94123.66;4384962;32;20207;-61
2021/12/01 10:48:43;;;;;;;0.40;0.40;;;;;;;9.69;66.78;94120.53;4380944;32;20234;-59
2021/12/01 10:51:13;;;;;;;2.00;0.50;;;;;;;9.63;66.41;94112.75;4378299;32;20208;-61
2021/12/01 10:53:39;;;;;;;1.93;0.37;;;;;;;9.60;66.33;94107.31;4382560;32;20199;-62
2021/12/01 10:56:06;;;;;;;0.97;0.27;;;;;;;9.82;65.25;94103.66;4381525;32;20189;-62
2021/12/01 10:58:33;;;;;;;2.33;0.40;;;;;;;9.77;65.32;94090.62;4379445;32;20240;-61
2021/12/01 11:01:00;;;;;;;0.20;0.20;;;;;;;9.90;65.46;94084.31;4382369;32;20264;-62
2021/12/01 11:03:29;;;;;;;1.40;0.30;;;;;;;9.75;65.34;94066.31;4384699;32;20234;-63
2021/12/01 11:05:57;;;;;;;1.77;1.10;;;;;;;9.78;66.35;94066.44;4378521;32;20213;-59
2021/12/01 11:08:26;;;;;;;1.17;1.07;;;;;;;9.73;66.43;94064.00;4372271;32;20192;-61
2021/12/01 11:10:56;;;;;;;0.20;0.20;;;;;;;9.88;66.22;94054.72;4380950;32;20249;-60
2021/12/01 11:13:24;;;;;;;0.83;0.20;;;;;;;10.01;65.74;94051.06;4387159;32;20185;-62
2021/12/01 11:15:54;;;;;;;0.23;0.23;;;;;;;9.85;65.99;94056.13;4382397;32;20193;-58
2021/12/01 11:18:23;;;;;;;0.40;0.40;;;;;;;9.69;67.38;94038.47;4393281;32;22832;-59
2021/12/01 11:20:50;;;;;;;0.50;0.50;;;;;;;9.86;67.13;94027.78;4389395;32;20169;-60
2021/12/01 11:23:27;;;;;;;0.10;0.10;;;;;;;9.83;66.81;94034.47;4377378;32;20201;-60
2021/12/01 11:26:07;;;;;;;1.40;0.30;;;;;;;9.88;66.31;94039.59;4383885;32;20180;-60
2021/12/01 11:28:44;;;;;;;1.07;0.20;;;;;;;9.87;66.69;94021.38;4392022;32;20219;-59
2021/12/01 11:31:15;;;;;;;3.20;3.00;;;;;;;9.94;65.97;94019.00;4384709;32;20249;-60
2021/12/01 11:33:44;;;;;;;2.03;0.60;;;;;;;9.83;66.78;94015.16;4372129;32;20197;-60
2021/12/01 11:36:11;;;;;;;0.47;0.47;;;;;;;9.89;67.02;94016.53;4380512;32;20193;-60
2021/12/01 11:38:37;;;;;;;2.33;0.40;;;;;;;9.99;67.04;94003.69;4381794;32;20209;-59
2021/12/01 11:41:05;;;;;;;0.93;0.20;;;;;;;9.98;66.25;93998.72;4374650;32;20184;-60
2021/12/01 11:43:33;;;;;;;0.53;0.20;;;;;;;10.12;65.74;94001.13;4379769;32;20209;-61
2021/12/01 11:45:58;;;;;;;166.63;85.00;;;;;;;10.14;66.16;93998.94;4384727;32;20208;-59
2021/12/01 11:48:28;;;;;;;1.90;1.30;;;;;;;10.00;66.50;93988.56;4382512;32;20206;-59